map of TLJ home
TLJ - Airport
Location
City:  Takotna, Alaska, United States
Name:Tatalina LRRS Airport
ICAO:PATL
IATA:TLJ
FAA LID:TLJ

Details
Type:Airport (Airfield)
Use:Military
Latitude:6253'42"N (62.894915)
Longitude:15558'41"W (-155.978012)
Datum:WGS 1984
Elevation:933 ft (284 m)
Variation:14.17E (WMM2015 magnetic declination)
-0.35 annual change
Runways:1
Longest:3820 × 150 ft (1164 × 45.5 m)

Time
Time Zone:UTC-9 (DST-8)
Local Time:

Weather
METAR:PATL 142214Z 00000KT 10SM BKN007 M02/M02 A2957 RMK AO2A SLP030 LSR09

Related Locations
Nearby:
Farthest:NZSP: 10550 mi / 16979 km
Amundsen-Scott South Pole Station [Jack F. Paulus Skiway], AQ

Find:

   beyond  
but within

Other Information
Maps:
NOTAMs:
Links:
Sources:

  
flag of United States
flag of Alaska
  

Sectional Chart

Flight Planning
at skyvector.com

Satellite Image

Google Maps Satellite view

 

Copyright © 2004-2017 Karl L. Swartz. All rights reserved.
The Great Circle Mapper name and logo are trademarks of the Great Circle Mapper.
All other trademarks mentioned herein belong to their respective owners.
Please see credits for attibutions and further copyright information.

  Follow gcmap on Facebook Follow gcmap on Twitter Follow gcmap on Google+ GCmap on LinkedIn

hCard Microformat

Geo Microformat